createdAt,value
2023-05-19T00:00:15.791Z,39.52
2023-05-19T00:01:19.096Z,39.70
2023-05-19T00:02:21.488Z,39.88
2023-05-19T00:03:24.994Z,40.24
2023-05-19T00:04:27.761Z,39.83
2023-05-19T00:05:31.130Z,40.03
2023-05-19T00:06:33.590Z,40.20
2023-05-19T00:07:37.750Z,40.14
2023-05-19T00:08:39.668Z,40.22
2023-05-19T00:09:42.829Z,40.22
2023-05-19T00:10:45.115Z,40.16
2023-05-19T00:11:48.349Z,40.27
2023-05-19T00:12:52.475Z,40.11
2023-05-19T00:13:59.852Z,40.34
2023-05-19T00:15:01.974Z,40.72
2023-05-19T00:16:06.148Z,40.54
2023-05-19T00:17:09.038Z,40.65
2023-05-19T00:18:14.163Z,40.71
2023-05-19T00:19:17.086Z,40.51
2023-05-19T00:20:19.878Z,41.00
2023-05-19T00:21:21.652Z,41.11
2023-05-19T00:22:24.359Z,40.72
2023-05-19T00:23:26.169Z,40.59
2023-05-19T00:24:29.247Z,40.85
2023-05-19T00:25:30.957Z,40.90
2023-05-19T00:26:33.910Z,41.13
2023-05-19T00:27:35.718Z,40.94
2023-05-19T00:28:38.868Z,41.17
2023-05-19T00:29:41.958Z,41.11
2023-05-19T00:30:44.677Z,41.48
2023-05-19T00:31:46.614Z,41.52
2023-05-19T00:32:52.694Z,41.72
2023-05-19T00:33:54.608Z,41.55
2023-05-19T00:34:57.323Z,41.63
2023-05-19T00:35:59.218Z,41.42
2023-05-19T00:37:02.009Z,41.95
2023-05-19T00:38:03.805Z,41.74
2023-05-19T00:39:06.515Z,41.79
2023-05-19T00:40:09.678Z,42.16
2023-05-19T00:41:15.017Z,42.20
2023-05-19T00:42:16.927Z,41.77
2023-05-19T00:43:19.610Z,42.24
2023-05-19T00:44:21.387Z,42.03
2023-05-19T00:45:25.573Z,42.09
2023-05-19T00:46:27.390Z,42.10
2023-05-19T00:47:30.174Z,42.03
2023-05-19T00:48:31.920Z,41.79
2023-05-19T00:49:34.697Z,41.79
2023-05-19T00:50:36.433Z,41.70
2023-05-19T00:51:39.120Z,42.08
2023-05-19T00:52:40.852Z,41.97
2023-05-19T00:53:48.378Z,41.99
2023-05-19T00:54:50.480Z,42.41
2023-05-19T00:55:53.272Z,42.39
2023-05-19T00:56:55.556Z,42.17
2023-05-19T00:57:58.433Z,42.52
2023-05-19T00:59:01.023Z,42.53
2023-05-19T01:00:05.849Z,42.62
2023-05-19T01:01:09.153Z,42.47
2023-05-19T01:02:11.989Z,42.39
2023-05-19T01:03:15.859Z,42.29
2023-05-19T01:04:21.673Z,42.60
2023-05-19T01:05:23.384Z,42.56
2023-05-19T01:06:27.727Z,42.18
2023-05-19T01:07:29.985Z,42.72
2023-05-19T01:08:33.652Z,42.65
2023-05-19T01:09:35.504Z,42.59
2023-05-19T01:10:38.493Z,42.43
2023-05-19T01:11:40.418Z,42.54
2023-05-19T01:12:43.238Z,42.42
2023-05-19T01:13:45.027Z,42.31
2023-05-19T01:14:47.834Z,42.45
2023-05-19T01:15:59.329Z,42.18
2023-05-19T01:17:08.166Z,42.60
2023-05-19T01:18:12.676Z,42.82
2023-05-19T01:19:32.107Z,42.83
2023-05-19T01:20:38.459Z,42.23
2023-05-19T01:22:22.823Z,42.25
2023-05-19T01:23:36.551Z,42.24
2023-05-19T01:25:15.454Z,42.47
2023-05-19T01:26:32.636Z,42.90
2023-05-19T01:27:44.591Z,43.02
2023-05-19T01:28:57.885Z,43.02
2023-05-19T01:30:19.423Z,42.93
2023-05-19T01:31:23.925Z,43.16
2023-05-19T01:32:26.819Z,42.93
2023-05-19T01:33:30.597Z,43.20
2023-05-19T01:34:36.142Z,43.34
2023-05-19T01:35:39.279Z,43.06
2023-05-19T01:36:44.759Z,43.09
2023-05-19T01:37:47.051Z,43.26
2023-05-19T01:38:52.379Z,43.20
2023-05-19T01:39:55.929Z,43.35
2023-05-19T01:40:58.780Z,43.31
2023-05-19T01:42:01.365Z,43.30
2023-05-19T01:43:04.466Z,43.18
2023-05-19T01:44:06.589Z,43.18
2023-05-19T01:45:11.367Z,43.57
2023-05-19T01:46:15.379Z,43.14
2023-05-19T01:47:18.179Z,43.25
2023-05-19T01:48:19.952Z,43.20
2023-05-19T01:49:22.716Z,43.19
2023-05-19T01:50:24.628Z,43.45
2023-05-19T01:51:27.558Z,43.54
2023-05-19T01:52:29.311Z,43.53
2023-05-19T01:53:32.081Z,43.39
2023-05-19T01:54:33.863Z,43.14
2023-05-19T01:55:37.374Z,43.34
2023-05-19T01:56:45.612Z,43.51
2023-05-19T01:57:56.332Z,43.39
2023-05-19T01:59:03.119Z,43.64
2023-05-19T02:00:11.746Z,43.22
2023-05-19T02:01:26.139Z,43.32
2023-05-19T02:02:36.742Z,43.58
2023-05-19T02:03:51.220Z,43.28
2023-05-19T02:04:57.868Z,43.44
2023-05-19T02:06:04.620Z,43.42
2023-05-19T02:07:15.756Z,43.70
2023-05-19T02:08:22.444Z,43.78
2023-05-19T02:09:29.276Z,43.67
2023-05-19T02:10:32.937Z,43.32
2023-05-19T02:11:37.678Z,43.67
2023-05-19T02:12:41.491Z,43.83
2023-05-19T02:13:44.573Z,43.76
2023-05-19T02:14:51.635Z,43.88
2023-05-19T02:15:55.870Z,43.71
2023-05-19T02:17:00.178Z,43.85
2023-05-19T02:18:04.596Z,43.89
2023-05-19T02:19:07.511Z,43.80
2023-05-19T02:20:10.099Z,43.89
2023-05-19T02:21:13.585Z,44.12
2023-05-19T02:22:15.298Z,44.23
2023-05-19T02:23:18.271Z,43.90
2023-05-19T02:24:20.240Z,43.92
2023-05-19T02:25:23.385Z,44.01
2023-05-19T02:26:26.172Z,44.07
2023-05-19T02:27:29.900Z,44.41
2023-05-19T02:28:31.590Z,44.27
2023-05-19T02:29:34.327Z,44.28
2023-05-19T02:30:36.113Z,44.22
2023-05-19T02:31:38.953Z,44.43
2023-05-19T02:32:42.079Z,44.29
2023-05-19T02:33:44.823Z,44.04
2023-05-19T02:34:46.607Z,44.47
2023-05-19T02:35:49.324Z,44.29
2023-05-19T02:36:51.629Z,44.35
2023-05-19T02:37:54.438Z,44.48
2023-05-19T02:38:56.222Z,44.75
2023-05-19T02:39:59.194Z,44.50
2023-05-19T02:41:01.154Z,44.57
2023-05-19T02:42:04.066Z,44.56
2023-05-19T02:43:06.303Z,44.56
2023-05-19T02:44:08.994Z,44.38
2023-05-19T02:45:11.598Z,44.57
2023-05-19T02:46:14.297Z,44.37
2023-05-19T02:47:16.055Z,44.90
2023-05-19T02:48:20.124Z,44.89
2023-05-19T02:49:21.901Z,44.70
2023-05-19T02:50:24.616Z,44.71
2023-05-19T02:51:26.348Z,44.89
2023-05-19T02:52:29.090Z,44.90
2023-05-19T02:53:32.588Z,44.92
2023-05-19T02:54:35.828Z,45.00
2023-05-19T02:55:37.542Z,45.07
2023-05-19T02:56:40.221Z,45.13
2023-05-19T02:57:42.329Z,44.91
2023-05-19T02:58:45.404Z,45.01
2023-05-19T02:59:47.176Z,45.15
2023-05-19T03:00:49.889Z,45.16
2023-05-19T03:01:54.958Z,45.02
2023-05-19T03:03:02.711Z,45.17
2023-05-19T03:04:06.310Z,45.42
2023-05-19T03:05:10.218Z,45.27
2023-05-19T03:06:12.641Z,45.35
2023-05-19T03:07:15.599Z,45.21
2023-05-19T03:08:17.339Z,45.29
2023-05-19T03:09:20.065Z,45.27
2023-05-19T03:10:21.805Z,45.19
2023-05-19T03:11:24.550Z,45.27
2023-05-19T03:12:26.436Z,45.26
2023-05-19T03:13:29.158Z,45.14
2023-05-19T03:14:30.874Z,45.18
2023-05-19T03:15:34.338Z,45.23
2023-05-19T03:16:36.083Z,44.95
2023-05-19T03:17:39.289Z,44.98
2023-05-19T03:18:41.684Z,44.94
2023-05-19T03:19:45.811Z,44.94
2023-05-19T03:20:47.566Z,44.87
2023-05-19T03:21:50.251Z,44.75
2023-05-19T03:22:52.108Z,44.88
2023-05-19T03:23:55.320Z,44.51
2023-05-19T03:24:58.458Z,44.65
2023-05-19T03:26:01.252Z,44.79
2023-05-19T03:27:03.031Z,44.59
2023-05-19T03:28:06.329Z,44.50
2023-05-19T03:29:08.319Z,44.69
2023-05-19T03:30:12.370Z,44.50
2023-05-19T03:31:14.110Z,44.71
2023-05-19T03:32:16.947Z,44.64
2023-05-19T03:33:18.706Z,44.53
2023-05-19T03:34:22.364Z,44.63
2023-05-19T03:35:25.495Z,44.56
2023-05-19T03:36:31.971Z,44.64
2023-05-19T03:37:33.886Z,44.39
2023-05-19T03:38:36.595Z,44.25
2023-05-19T03:39:38.305Z,44.44
2023-05-19T03:40:41.407Z,44.45
2023-05-19T03:41:43.127Z,44.34
2023-05-19T03:42:46.147Z,44.28
2023-05-19T03:43:47.853Z,44.24
2023-05-19T03:44:50.713Z,44.60
2023-05-19T03:45:53.014Z,44.21
2023-05-19T03:46:55.784Z,44.27
2023-05-19T03:47:57.544Z,44.54
2023-05-19T03:49:00.335Z,44.39
2023-05-19T03:50:02.288Z,44.33
2023-05-19T03:51:06.548Z,44.22
2023-05-19T03:52:08.238Z,44.37
2023-05-19T03:53:10.985Z,44.03
2023-05-19T03:54:12.738Z,44.10
2023-05-19T03:55:16.299Z,44.14
2023-05-19T03:56:18.301Z,44.51
2023-05-19T03:57:21.557Z,44.16
2023-05-19T03:58:24.121Z,44.31
2023-05-19T03:59:26.933Z,44.31
2023-05-19T04:00:28.709Z,44.50
2023-05-19T04:01:31.385Z,44.22
2023-05-19T04:02:33.203Z,44.19
2023-05-19T04:03:36.040Z,44.12
2023-05-19T04:04:38.135Z,44.30
2023-05-19T04:05:40.878Z,44.45
2023-05-19T04:06:43.948Z,44.42
2023-05-19T04:07:47.009Z,44.51
2023-05-19T04:08:48.799Z,44.34
2023-05-19T04:09:51.586Z,44.32
2023-05-19T04:10:53.325Z,44.39
2023-05-19T04:11:56.016Z,44.30
2023-05-19T04:12:57.761Z,44.30
2023-05-19T04:14:00.482Z,44.41
2023-05-19T04:15:02.201Z,44.37
2023-05-19T04:16:05.697Z,44.27
2023-05-19T04:17:07.600Z,44.32
2023-05-19T04:18:10.415Z,44.19
2023-05-19T04:19:12.341Z,44.07
2023-05-19T04:20:15.186Z,44.03
2023-05-19T04:21:16.893Z,43.97
2023-05-19T04:22:20.996Z,43.89
2023-05-19T04:23:22.767Z,44.21
2023-05-19T04:24:25.490Z,44.06
2023-05-19T04:25:28.203Z,44.27
2023-05-19T04:26:34.555Z,43.87
2023-05-19T04:27:38.842Z,44.08
2023-05-19T04:28:42.411Z,44.09
2023-05-19T04:29:46.100Z,44.04
2023-05-19T04:30:48.894Z,44.13
2023-05-19T04:31:50.751Z,44.30
2023-05-19T04:32:53.618Z,43.91
2023-05-19T04:33:55.446Z,44.04
2023-05-19T04:34:58.900Z,43.93
2023-05-19T04:36:05.424Z,44.01
2023-05-19T04:37:10.120Z,44.16
2023-05-19T04:38:13.640Z,44.15
2023-05-19T04:39:16.685Z,44.15
2023-05-19T04:40:21.094Z,44.41
2023-05-19T04:41:23.812Z,44.28
2023-05-19T04:42:26.190Z,44.25
2023-05-19T04:43:29.185Z,44.27
2023-05-19T04:44:31.917Z,44.24
2023-05-19T04:45:34.136Z,44.31
2023-05-19T04:46:36.884Z,44.26
2023-05-19T04:47:38.783Z,44.38
2023-05-19T04:48:41.689Z,44.42
2023-05-19T04:49:43.484Z,44.40
2023-05-19T04:50:48.849Z,44.61
2023-05-19T04:51:54.884Z,44.88
2023-05-19T04:52:59.919Z,44.61
2023-05-19T04:54:03.998Z,44.45
2023-05-19T04:55:07.695Z,44.42
2023-05-19T04:56:09.644Z,44.60
2023-05-19T04:57:12.374Z,44.85
2023-05-19T04:58:14.099Z,44.77
2023-05-19T04:59:16.807Z,44.65
2023-05-19T05:00:26.004Z,44.79
2023-05-19T05:01:31.213Z,44.51
2023-05-19T05:02:34.059Z,44.49
2023-05-19T05:03:36.915Z,44.31
2023-05-19T05:04:42.543Z,44.84
2023-05-19T05:05:45.613Z,44.73
2023-05-19T05:06:48.688Z,44.76
2023-05-19T05:07:54.042Z,44.47
2023-05-19T05:08:56.875Z,44.52
2023-05-19T05:10:01.205Z,44.73
2023-05-19T05:11:03.784Z,44.33
2023-05-19T05:12:08.054Z,44.76
2023-05-19T05:13:11.721Z,44.22
2023-05-19T05:14:15.204Z,44.65
2023-05-19T05:15:17.877Z,44.27
2023-05-19T05:16:21.189Z,44.14
2023-05-19T05:17:23.539Z,44.11
2023-05-19T05:18:27.083Z,44.52
2023-05-19T05:19:29.509Z,44.04
2023-05-19T05:20:33.652Z,44.40
2023-05-19T05:21:36.135Z,44.51
2023-05-19T05:22:39.738Z,44.33
2023-05-19T05:23:41.943Z,43.91
2023-05-19T05:24:45.286Z,44.42
2023-05-19T05:25:48.986Z,43.89
2023-05-19T05:26:52.387Z,43.94
2023-05-19T05:27:54.178Z,44.17
2023-05-19T05:28:56.858Z,43.98
2023-05-19T05:29:59.300Z,43.72
2023-05-19T05:31:02.122Z,43.66
2023-05-19T05:32:04.169Z,43.86
2023-05-19T05:33:07.354Z,43.66
2023-05-19T05:34:09.477Z,43.43
2023-05-19T05:35:12.239Z,43.77
2023-05-19T05:36:14.724Z,43.85
2023-05-19T05:37:18.072Z,43.48
2023-05-19T05:38:19.897Z,43.46
2023-05-19T05:39:22.743Z,43.60
2023-05-19T05:40:27.239Z,43.33
2023-05-19T05:41:35.253Z,43.29
2023-05-19T05:42:37.157Z,43.22
2023-05-19T05:43:40.079Z,43.14
2023-05-19T05:44:41.898Z,43.46
2023-05-19T05:45:45.400Z,43.07
2023-05-19T05:46:47.802Z,43.11
2023-05-19T05:47:51.294Z,43.17
2023-05-19T05:48:53.856Z,43.49
2023-05-19T05:49:57.211Z,43.14
2023-05-19T05:50:59.685Z,43.18
2023-05-19T05:52:06.104Z,43.00
2023-05-19T05:53:09.117Z,43.05
2023-05-19T05:54:13.437Z,42.84
2023-05-19T05:55:17.391Z,42.47
2023-05-19T05:56:20.919Z,42.74
2023-05-19T05:57:24.592Z,42.62
2023-05-19T05:58:27.748Z,42.51
2023-05-19T05:59:29.896Z,42.68
2023-05-19T06:00:34.434Z,42.33
2023-05-19T06:01:36.655Z,42.37
2023-05-19T06:02:39.628Z,42.39
2023-05-19T06:03:42.753Z,42.46
2023-05-19T06:04:45.625Z,42.45
2023-05-19T06:05:47.704Z,42.55
2023-05-19T06:06:52.568Z,42.23
2023-05-19T06:07:54.298Z,42.18
2023-05-19T06:08:57.086Z,42.08
2023-05-19T06:09:58.906Z,42.15
2023-05-19T06:11:01.761Z,42.09
2023-05-19T06:12:03.941Z,41.93
2023-05-19T06:13:08.164Z,41.98
2023-05-19T06:14:10.494Z,41.73
2023-05-19T06:15:13.403Z,41.58
2023-05-19T06:16:16.163Z,41.55
2023-05-19T06:17:17.958Z,41.50
2023-05-19T06:18:20.663Z,41.43
2023-05-19T06:19:22.427Z,41.37
2023-05-19T06:20:25.290Z,41.17
2023-05-19T06:21:27.000Z,41.19
2023-05-19T06:22:29.759Z,40.96
2023-05-19T06:23:31.555Z,40.93
2023-05-19T06:24:34.312Z,40.92
2023-05-19T06:25:36.376Z,40.61
2023-05-19T06:26:39.110Z,40.29
2023-05-19T06:27:41.004Z,40.12
2023-05-19T06:28:45.129Z,39.95
2023-05-19T06:29:47.856Z,39.88
2023-05-19T06:30:49.604Z,39.63
2023-05-19T06:31:52.347Z,39.51
2023-05-19T06:32:54.154Z,39.43
2023-05-19T06:33:56.876Z,39.27
2023-05-19T06:34:58.731Z,39.32
2023-05-19T06:36:01.501Z,39.10
2023-05-19T06:37:03.802Z,39.02
2023-05-19T06:38:06.532Z,39.40
2023-05-19T06:39:08.300Z,38.99
2023-05-19T06:40:12.559Z,38.79
2023-05-19T06:41:14.263Z,38.21
2023-05-19T06:42:16.946Z,38.22
2023-05-19T06:43:18.705Z,38.12
2023-05-19T06:44:23.880Z,37.96
2023-05-19T06:45:25.757Z,38.29
2023-05-19T06:46:28.508Z,38.08
2023-05-19T06:47:30.316Z,38.14
2023-05-19T06:48:33.152Z,38.06
2023-05-19T06:49:34.928Z,37.92
2023-05-19T06:50:37.668Z,38.16
2023-05-19T06:51:39.489Z,37.91
2023-05-19T06:52:42.627Z,37.80
2023-05-19T06:53:44.348Z,37.69
2023-05-19T06:54:47.071Z,37.32
2023-05-19T06:55:58.628Z,37.46
2023-05-19T06:57:01.374Z,37.40
2023-05-19T06:58:04.125Z,37.45
2023-05-19T06:59:06.140Z,37.25
2023-05-19T07:00:13.880Z,37.13
2023-05-19T07:01:17.058Z,37.14
2023-05-19T07:02:19.867Z,37.05
2023-05-19T07:03:21.750Z,37.00
2023-05-19T07:04:24.613Z,36.83
2023-05-19T07:05:26.463Z,36.77
2023-05-19T07:06:29.202Z,36.77
2023-05-19T07:07:30.929Z,36.64
2023-05-19T07:08:34.591Z,36.70
2023-05-19T07:09:36.428Z,36.39
2023-05-19T07:10:42.318Z,36.52
2023-05-19T07:11:44.225Z,36.07
2023-05-19T07:12:46.994Z,36.14
2023-05-19T07:13:48.755Z,35.88
2023-05-19T07:14:51.576Z,36.05
2023-05-19T07:15:55.822Z,35.78
2023-05-19T07:16:58.657Z,35.96
2023-05-19T07:18:00.576Z,35.82
2023-05-19T07:19:03.381Z,35.67
2023-05-19T07:20:10.023Z,35.51
2023-05-19T07:21:11.774Z,35.53
2023-05-19T07:22:14.930Z,35.69
2023-05-19T07:23:17.510Z,35.48
2023-05-19T07:24:21.399Z,35.43
2023-05-19T07:25:23.181Z,35.46
2023-05-19T07:26:26.362Z,35.19
2023-05-19T07:27:28.374Z,35.25
2023-05-19T07:28:31.084Z,34.89
2023-05-19T07:29:32.774Z,34.90
2023-05-19T07:30:35.715Z,34.49
2023-05-19T07:31:38.975Z,34.33
2023-05-19T07:32:41.716Z,34.23
2023-05-19T07:33:43.528Z,34.15
2023-05-19T07:34:46.337Z,33.90
2023-05-19T07:35:48.939Z,33.75
2023-05-19T07:36:52.752Z,33.72
2023-05-19T07:37:54.512Z,33.31
2023-05-19T07:38:57.260Z,33.35
2023-05-19T07:40:00.296Z,33.09
2023-05-19T07:41:02.259Z,32.85
2023-05-19T07:42:05.559Z,32.64
2023-05-19T07:43:07.384Z,32.64
2023-05-19T07:44:10.818Z,32.69
2023-05-19T07:45:13.800Z,32.45
2023-05-19T07:46:15.972Z,32.04
2023-05-19T07:47:20.256Z,32.14
2023-05-19T07:48:23.114Z,32.03
2023-05-19T07:49:26.024Z,32.02
2023-05-19T07:50:29.084Z,32.00
2023-05-19T07:51:32.734Z,31.79
2023-05-19T07:52:35.594Z,31.59
2023-05-19T07:53:37.587Z,31.79
2023-05-19T07:54:40.419Z,31.86
2023-05-19T07:55:42.425Z,31.21
2023-05-19T07:56:45.324Z,31.36
2023-05-19T07:57:47.190Z,31.33
2023-05-19T07:58:50.096Z,30.96
2023-05-19T07:59:55.677Z,30.73
2023-05-19T08:00:57.779Z,30.73
2023-05-19T08:02:00.613Z,30.94
2023-05-19T08:03:04.075Z,30.88
2023-05-19T08:04:07.692Z,30.97
2023-05-19T08:05:11.529Z,30.90
2023-05-19T08:06:14.238Z,30.76
2023-05-19T08:07:15.939Z,30.93
2023-05-19T08:08:19.598Z,31.20
2023-05-19T08:09:22.317Z,31.15
2023-05-19T08:10:24.173Z,31.00
2023-05-19T08:11:26.931Z,30.68
2023-05-19T08:12:28.733Z,30.75
2023-05-19T08:13:31.552Z,30.64
2023-05-19T08:14:34.862Z,30.49
2023-05-19T08:15:37.795Z,29.99
2023-05-19T08:16:42.131Z,30.29
2023-05-19T08:17:45.098Z,30.26
2023-05-19T08:18:49.298Z,29.89
2023-05-19T08:19:51.090Z,30.07
2023-05-19T08:20:53.811Z,30.01
2023-05-19T08:21:57.556Z,30.24
2023-05-19T08:22:59.384Z,29.51
2023-05-19T08:24:02.543Z,29.75
2023-05-19T08:25:06.259Z,29.52
2023-05-19T08:26:08.100Z,29.99
2023-05-19T08:27:10.856Z,29.76
2023-05-19T08:28:12.589Z,29.91
2023-05-19T08:29:15.286Z,29.88
2023-05-19T08:30:18.062Z,29.70
2023-05-19T08:31:21.129Z,29.53
2023-05-19T08:32:23.744Z,29.52
2023-05-19T08:33:26.486Z,29.52
2023-05-19T08:34:29.599Z,29.55
2023-05-19T08:35:32.404Z,29.29
2023-05-19T08:36:34.538Z,29.27
2023-05-19T08:37:38.648Z,29.47
2023-05-19T08:38:41.527Z,29.13
2023-05-19T08:39:43.352Z,29.46
2023-05-19T08:40:47.969Z,29.25
2023-05-19T08:41:49.887Z,29.38
2023-05-19T08:42:52.692Z,29.46
2023-05-19T08:43:55.706Z,29.08
2023-05-19T08:44:57.577Z,29.49
2023-05-19T08:46:01.100Z,29.15
2023-05-19T08:47:05.300Z,29.46
2023-05-19T08:48:08.036Z,29.10
2023-05-19T08:49:13.215Z,28.77
2023-05-19T08:50:18.967Z,28.57
2023-05-19T08:51:24.723Z,28.69
2023-05-19T08:52:34.053Z,29.15
2023-05-19T08:53:38.244Z,29.10
2023-05-19T08:54:45.555Z,28.64
2023-05-19T08:55:53.381Z,28.99
2023-05-19T08:56:57.363Z,29.12
2023-05-19T08:57:59.915Z,29.04
2023-05-19T08:59:04.121Z,28.75
2023-05-19T09:00:09.068Z,28.57
2023-05-19T09:01:12.187Z,27.88
2023-05-19T09:02:15.382Z,28.08
2023-05-19T09:03:23.504Z,27.70
2023-05-19T09:04:30.007Z,27.52
2023-05-19T09:05:33.956Z,27.76
2023-05-19T09:06:36.994Z,27.78
2023-05-19T09:07:38.828Z,27.83
2023-05-19T09:08:42.181Z,27.85
2023-05-19T09:09:44.148Z,27.63
2023-05-19T09:10:47.182Z,27.52
2023-05-19T09:11:49.061Z,27.33
2023-05-19T09:12:52.667Z,27.82
2023-05-19T09:13:54.772Z,27.47
2023-05-19T09:14:57.978Z,27.43
2023-05-19T09:16:02.069Z,27.52
2023-05-19T09:17:05.170Z,27.08
2023-05-19T09:18:09.013Z,26.48
2023-05-19T09:19:16.593Z,26.74
2023-05-19T09:20:18.564Z,26.93
2023-05-19T09:21:31.155Z,27.00
2023-05-19T09:22:35.872Z,26.47
2023-05-19T09:23:38.870Z,26.21
2023-05-19T09:24:41.681Z,26.05
2023-05-19T09:25:51.551Z,26.04
2023-05-19T09:26:59.224Z,25.62
2023-05-19T09:28:03.087Z,25.74
2023-05-19T09:29:12.624Z,25.98
2023-05-19T09:30:16.036Z,25.77
2023-05-19T09:31:18.909Z,25.62
2023-05-19T09:32:27.784Z,25.35
2023-05-19T09:33:31.085Z,25.23
2023-05-19T09:34:34.056Z,25.70
2023-05-19T09:35:36.474Z,25.74
2023-05-19T09:36:42.363Z,25.74
2023-05-19T09:37:55.902Z,25.64
2023-05-19T09:38:58.901Z,25.55
2023-05-19T09:40:01.794Z,25.92
2023-05-19T09:41:04.993Z,25.89
2023-05-19T09:42:07.849Z,26.21
2023-05-19T09:43:10.178Z,25.91
2023-05-19T09:44:23.319Z,26.19
2023-05-19T09:45:28.368Z,25.56
2023-05-19T09:46:30.417Z,25.48
2023-05-19T09:47:35.462Z,25.28
2023-05-19T09:48:38.792Z,25.13
2023-05-19T09:49:47.716Z,25.12
2023-05-19T09:50:51.787Z,25.13
2023-05-19T09:51:56.829Z,25.15
2023-05-19T09:52:58.766Z,24.93
2023-05-19T09:54:02.134Z,24.68
2023-05-19T09:55:06.794Z,24.89
2023-05-19T09:56:08.898Z,24.70
2023-05-19T09:57:11.805Z,24.61
2023-05-19T09:58:17.702Z,24.96
2023-05-19T09:59:19.526Z,24.88
2023-05-19T10:00:22.776Z,24.58
2023-05-19T10:01:24.829Z,24.35
2023-05-19T10:02:28.203Z,24.27
2023-05-19T10:03:30.206Z,24.12
2023-05-19T10:04:33.029Z,24.42
2023-05-19T10:05:35.309Z,24.31
2023-05-19T10:06:38.544Z,23.92
2023-05-19T10:07:41.764Z,24.19
2023-05-19T10:08:45.155Z,23.71
2023-05-19T10:09:49.086Z,23.76
2023-05-19T10:10:51.816Z,23.87
2023-05-19T10:11:56.493Z,23.99
2023-05-19T10:13:00.226Z,23.30
2023-05-19T10:14:02.985Z,23.44
2023-05-19T10:15:06.149Z,23.42
2023-05-19T10:16:09.806Z,23.54
2023-05-19T10:17:12.536Z,23.46
2023-05-19T10:18:17.153Z,23.37
2023-05-19T10:19:22.213Z,22.89
2023-05-19T10:20:25.085Z,23.42
2023-05-19T10:21:26.858Z,23.40
2023-05-19T10:22:29.609Z,23.29
2023-05-19T10:23:33.699Z,22.87
2023-05-19T10:24:36.448Z,23.28
2023-05-19T10:25:39.784Z,22.59
2023-05-19T10:26:44.738Z,22.92
2023-05-19T10:27:52.527Z,23.45
2023-05-19T10:28:55.492Z,23.47
2023-05-19T10:30:00.790Z,23.03
2023-05-19T10:31:06.233Z,23.63
2023-05-19T10:32:12.318Z,22.77
2023-05-19T10:33:18.065Z,23.47
2023-05-19T10:34:37.450Z,23.49
2023-05-19T10:35:55.759Z,22.97
2023-05-19T10:37:06.634Z,23.12
2023-05-19T10:38:15.823Z,23.05
2023-05-19T10:39:23.823Z,23.54
2023-05-19T10:40:29.189Z,23.95
2023-05-19T10:41:37.117Z,23.40
2023-05-19T10:42:46.829Z,23.97
2023-05-19T10:43:54.564Z,23.90
2023-05-19T10:45:05.800Z,23.88
2023-05-19T10:46:07.564Z,24.01
2023-05-19T10:47:11.992Z,24.22
2023-05-19T10:48:27.388Z,24.44
2023-05-19T10:49:29.302Z,24.24
2023-05-19T10:50:36.767Z,24.50
2023-05-19T10:51:38.554Z,24.56
2023-05-19T10:52:41.841Z,24.62
2023-05-19T10:53:46.270Z,24.58
2023-05-19T10:54:54.670Z,25.10
2023-05-19T10:55:58.997Z,25.05
2023-05-19T10:57:00.775Z,25.02
2023-05-19T10:58:03.793Z,25.00
2023-05-19T10:59:06.631Z,24.70
2023-05-19T11:00:29.695Z,24.50
2023-05-19T11:01:34.072Z,24.91
2023-05-19T11:02:41.042Z,24.36
2023-05-19T11:03:49.210Z,24.46
2023-05-19T11:04:51.784Z,24.26
2023-05-19T11:05:54.870Z,24.33
2023-05-19T11:06:57.785Z,24.26
2023-05-19T11:08:02.427Z,24.20
2023-05-19T11:09:12.510Z,23.71
2023-05-19T11:10:23.877Z,23.61
2023-05-19T11:11:26.666Z,23.61
2023-05-19T11:12:29.444Z,23.57
2023-05-19T11:13:31.398Z,24.11
2023-05-19T11:14:34.179Z,23.97
2023-05-19T11:15:36.696Z,23.49
2023-05-19T11:16:41.762Z,23.38
2023-05-19T11:17:46.305Z,23.59
2023-05-19T11:18:50.552Z,22.86
2023-05-19T11:19:54.488Z,23.01
2023-05-19T11:20:59.152Z,22.71
2023-05-19T11:22:09.355Z,23.45
2023-05-19T11:23:17.940Z,23.77
2023-05-19T11:24:40.080Z,23.39
2023-05-19T11:25:44.979Z,23.68
2023-05-19T11:26:47.732Z,23.27
2023-05-19T11:27:51.374Z,23.04
2023-05-19T11:28:54.152Z,23.64
2023-05-19T11:29:57.223Z,23.90
2023-05-19T11:31:01.100Z,23.77
2023-05-19T11:32:03.244Z,23.07
2023-05-19T11:33:06.448Z,23.52
2023-05-19T11:34:09.377Z,22.89
2023-05-19T11:35:12.656Z,22.97
2023-05-19T11:36:16.687Z,22.89
2023-05-19T11:37:18.478Z,22.74
2023-05-19T11:38:23.599Z,22.93
2023-05-19T11:39:25.903Z,22.96
2023-05-19T11:40:28.803Z,22.56
2023-05-19T11:41:32.154Z,22.67
2023-05-19T11:42:36.080Z,22.77
2023-05-19T11:43:38.825Z,22.73
2023-05-19T11:44:41.340Z,22.62
2023-05-19T11:45:44.130Z,22.61
2023-05-19T11:46:46.095Z,22.26
2023-05-19T11:48:01.106Z,22.02
2023-05-19T11:49:05.960Z,22.14
2023-05-19T11:50:09.349Z,21.94
2023-05-19T11:51:12.092Z,22.02
2023-05-19T11:52:14.048Z,21.91
2023-05-19T11:53:17.594Z,22.31
2023-05-19T11:54:19.513Z,22.32
2023-05-19T11:55:23.305Z,22.06
2023-05-19T11:56:26.241Z,21.89
2023-05-19T11:57:29.371Z,22.10
2023-05-19T11:58:32.485Z,22.21
2023-05-19T11:59:36.217Z,22.71
2023-05-19T12:00:41.288Z,22.87
2023-05-19T12:01:43.235Z,22.60
2023-05-19T12:02:46.029Z,22.07
2023-05-19T12:03:49.765Z,21.84
2023-05-19T12:04:53.445Z,21.77
2023-05-19T12:05:56.317Z,21.41
2023-05-19T12:06:58.086Z,21.26
2023-05-19T12:08:01.591Z,21.33
2023-05-19T12:09:06.427Z,21.29
2023-05-19T12:10:09.044Z,20.80
2023-05-19T12:11:11.753Z,21.26
2023-05-19T12:12:15.036Z,21.47
2023-05-19T12:13:19.163Z,21.58
2023-05-19T12:14:21.038Z,21.67
2023-05-19T12:15:24.845Z,22.42
2023-05-19T12:16:33.608Z,22.33
2023-05-19T12:17:36.496Z,22.00
2023-05-19T12:18:38.376Z,22.13
2023-05-19T12:19:41.622Z,21.73
2023-05-19T12:20:44.625Z,21.84
2023-05-19T12:21:46.434Z,21.71
2023-05-19T12:22:49.259Z,22.07
2023-05-19T12:23:53.506Z,21.75
2023-05-19T12:24:56.392Z,21.87
2023-05-19T12:26:00.544Z,21.60
2023-05-19T12:27:07.434Z,21.40
2023-05-19T12:28:12.227Z,21.36
2023-05-19T12:29:15.336Z,21.46
2023-05-19T12:30:18.215Z,21.13
2023-05-19T12:31:20.641Z,21.53
2023-05-19T12:32:25.376Z,21.58
2023-05-19T12:33:28.388Z,21.99
2023-05-19T12:34:30.500Z,21.64
2023-05-19T12:35:34.176Z,21.86
2023-05-19T12:36:41.173Z,21.66
2023-05-19T12:37:42.964Z,21.95
2023-05-19T12:38:47.757Z,21.96
2023-05-19T12:39:50.294Z,22.06
2023-05-19T12:40:53.314Z,21.76
2023-05-19T12:42:01.758Z,21.74
2023-05-19T12:43:05.407Z,21.50
2023-05-19T12:44:16.457Z,21.66
2023-05-19T12:45:21.335Z,21.47
2023-05-19T12:46:24.106Z,21.88
2023-05-19T12:47:32.029Z,21.69
2023-05-19T12:48:35.093Z,21.58
2023-05-19T12:49:36.880Z,21.79
2023-05-19T12:50:39.712Z,21.61
2023-05-19T12:51:41.505Z,22.06
2023-05-19T12:52:45.560Z,21.78
2023-05-19T12:53:48.401Z,21.72
2023-05-19T12:54:50.348Z,21.85
2023-05-19T12:55:53.828Z,21.69
2023-05-19T12:56:57.813Z,21.66
2023-05-19T12:58:00.561Z,21.33
2023-05-19T12:59:02.344Z,21.43
2023-05-19T13:00:10.590Z,21.35
2023-05-19T13:01:20.016Z,21.51
2023-05-19T13:02:22.028Z,22.11
2023-05-19T13:03:24.873Z,21.77
2023-05-19T13:04:27.256Z,21.89
2023-05-19T13:05:31.444Z,21.68
2023-05-19T13:06:34.181Z,21.83
2023-05-19T13:07:35.952Z,21.65
2023-05-19T13:08:39.710Z,21.58
2023-05-19T13:09:42.220Z,21.75
2023-05-19T13:10:46.156Z,21.53
2023-05-19T13:11:51.098Z,21.59
2023-05-19T13:12:54.508Z,21.48
2023-05-19T13:13:57.658Z,21.41
2023-05-19T13:15:00.153Z,21.27
2023-05-19T13:16:04.279Z,21.26
2023-05-19T13:17:06.398Z,20.56
2023-05-19T13:18:12.575Z,20.54
2023-05-19T13:19:24.796Z,20.55
2023-05-19T13:20:29.607Z,20.70
2023-05-19T13:21:32.449Z,20.55
2023-05-19T13:22:34.223Z,20.51
2023-05-19T13:23:37.709Z,20.65
2023-05-19T13:24:39.459Z,20.95
2023-05-19T13:25:42.563Z,21.28
2023-05-19T13:26:45.357Z,20.89
2023-05-19T13:27:47.793Z,21.10
2023-05-19T13:28:50.853Z,20.80
2023-05-19T13:29:52.617Z,21.20
2023-05-19T13:30:55.416Z,21.13
2023-05-19T13:32:01.071Z,20.73
2023-05-19T13:33:04.268Z,20.63
2023-05-19T13:34:06.039Z,20.81
2023-05-19T13:35:10.319Z,21.19
2023-05-19T13:36:12.994Z,21.06
2023-05-19T13:37:14.790Z,20.91
2023-05-19T13:38:17.609Z,21.32
2023-05-19T13:39:19.345Z,21.36
2023-05-19T13:40:23.926Z,21.03
2023-05-19T13:41:26.207Z,20.69